createdAt,value
2022-12-04T00:01:11.984Z,17.73
2022-12-04T00:03:40.710Z,17.38
2022-12-04T00:06:11.330Z,17.80
2022-12-04T00:08:40.436Z,14.77
2022-12-04T00:11:10.102Z,17.30
2022-12-04T00:13:39.546Z,17.83
2022-12-04T00:16:12.086Z,16.92
2022-12-04T00:18:40.919Z,17.37
2022-12-04T00:21:13.298Z,19.10
2022-12-04T00:23:41.786Z,17.50
2022-12-04T00:26:11.552Z,18.42
2022-12-04T00:28:40.719Z,17.77
2022-12-04T00:31:11.435Z,16.35
2022-12-04T00:33:39.794Z,16.38
2022-12-04T00:36:10.947Z,17.55
2022-12-04T00:38:40.143Z,17.55
2022-12-04T00:41:12.541Z,17.25
2022-12-04T00:43:40.857Z,15.98
2022-12-04T00:46:10.683Z,17.92
2022-12-04T00:48:39.504Z,17.92
2022-12-04T00:51:09.823Z,15.23
2022-12-04T00:53:38.102Z,16.52
2022-12-04T00:56:07.778Z,16.70
2022-12-04T00:58:36.157Z,17.85
2022-12-04T01:01:06.337Z,18.50
2022-12-04T01:03:36.221Z,17.52
2022-12-04T01:06:05.442Z,17.60
2022-12-04T01:08:34.427Z,16.50
2022-12-04T01:11:07.081Z,17.10
2022-12-04T01:13:35.587Z,16.30
2022-12-04T01:16:04.043Z,16.20
2022-12-04T01:18:32.238Z,16.70
2022-12-04T01:21:01.699Z,16.98
2022-12-04T01:23:29.801Z,14.00
2022-12-04T01:25:59.631Z,15.77
2022-12-04T01:28:28.181Z,16.85
2022-12-04T01:31:01.493Z,15.90
2022-12-04T01:35:59.953Z,16.77
2022-12-04T01:38:30.351Z,17.17
2022-12-04T01:40:59.233Z,17.67
2022-12-04T01:43:29.998Z,17.73
2022-12-04T01:45:59.204Z,16.85
2022-12-04T01:48:30.982Z,17.58
2022-12-04T01:51:06.582Z,16.90
2022-12-04T01:53:38.627Z,17.52
2022-12-04T01:56:08.590Z,15.00
2022-12-04T01:58:41.313Z,16.77
2022-12-04T02:01:10.210Z,17.10
2022-12-04T02:03:39.305Z,17.05
2022-12-04T02:06:08.232Z,15.73
2022-12-04T02:08:38.803Z,17.77
2022-12-04T02:11:19.085Z,17.45
2022-12-04T02:13:56.493Z,16.88
2022-12-04T02:16:30.009Z,17.85
2022-12-04T02:19:05.939Z,16.13
2022-12-04T02:21:38.962Z,16.55
2022-12-04T02:24:30.676Z,18.23
2022-12-04T02:27:03.889Z,18.10
2022-12-04T02:29:41.369Z,17.02
2022-12-04T02:32:18.700Z,17.95
2022-12-04T02:34:53.952Z,16.42
2022-12-04T02:37:29.789Z,16.48
2022-12-04T02:40:05.764Z,15.52
2022-12-04T02:42:41.978Z,17.98
2022-12-04T02:45:15.382Z,15.55
2022-12-04T02:47:45.373Z,17.13
2022-12-04T02:50:16.276Z,18.55
2022-12-04T02:52:49.417Z,17.15
2022-12-04T02:55:20.616Z,16.08
2022-12-04T02:57:54.915Z,15.75
2022-12-04T03:00:24.618Z,17.67
2022-12-04T03:02:58.015Z,16.33
2022-12-04T03:05:31.568Z,18.38
2022-12-04T03:08:05.166Z,16.20
2022-12-04T03:10:37.587Z,17.52
2022-12-04T03:13:09.685Z,15.32
2022-12-04T03:15:45.477Z,16.95
2022-12-04T03:18:17.892Z,16.38
2022-12-04T03:20:49.250Z,15.82
2022-12-04T03:23:21.775Z,17.42
2022-12-04T03:25:57.387Z,17.07
2022-12-04T03:28:32.849Z,18.23
2022-12-04T03:31:08.285Z,16.52
2022-12-04T03:33:42.465Z,16.65
2022-12-04T03:36:17.707Z,17.15
2022-12-04T03:38:52.584Z,15.68
2022-12-04T03:41:27.221Z,15.45
2022-12-04T03:44:00.136Z,17.30
2022-12-04T03:46:33.327Z,17.10
2022-12-04T03:49:09.352Z,15.60
2022-12-04T03:51:41.851Z,16.02
2022-12-04T03:54:15.745Z,18.07
2022-12-04T03:56:48.922Z,16.85
2022-12-04T03:59:22.138Z,17.45
2022-12-04T04:01:53.017Z,16.45
2022-12-04T04:04:28.333Z,17.10
2022-12-04T04:07:00.571Z,18.17
2022-12-04T04:09:36.325Z,17.20
2022-12-04T04:12:08.900Z,16.35
2022-12-04T04:15:01.171Z,17.90
2022-12-04T04:17:53.168Z,18.38
2022-12-04T04:20:42.824Z,17.50
2022-12-04T04:23:30.174Z,16.25
2022-12-04T04:26:01.928Z,17.90
2022-12-04T04:28:35.747Z,17.60
2022-12-04T04:31:09.730Z,17.00
2022-12-04T04:33:47.050Z,17.15
2022-12-04T04:36:22.647Z,17.80
2022-12-04T04:38:57.697Z,17.10
2022-12-04T04:41:33.547Z,18.05
2022-12-04T04:44:10.328Z,17.25
2022-12-04T04:46:42.505Z,17.45
2022-12-04T04:49:14.717Z,17.75
2022-12-04T04:51:44.473Z,18.15
2022-12-04T04:54:15.823Z,19.02
2022-12-04T04:56:45.989Z,16.08
2022-12-04T04:59:14.783Z,18.52
2022-12-04T05:01:46.042Z,18.73
2022-12-04T05:04:15.791Z,17.30
2022-12-04T05:06:44.230Z,17.42
2022-12-04T05:09:12.366Z,16.70
2022-12-04T05:11:40.541Z,19.95
2022-12-04T05:14:09.631Z,19.27
2022-12-04T05:16:37.974Z,18.23
2022-12-04T05:19:23.497Z,18.55
2022-12-04T05:21:52.906Z,17.98
2022-12-04T05:24:20.976Z,15.80
2022-12-04T05:26:49.034Z,17.65
2022-12-04T05:29:17.463Z,17.23
2022-12-04T05:31:46.125Z,17.50
2022-12-04T05:34:14.161Z,17.95
2022-12-04T05:36:42.609Z,18.38
2022-12-04T05:39:12.355Z,14.85
2022-12-04T05:41:41.024Z,17.17
2022-12-04T05:44:09.099Z,17.45
2022-12-04T05:46:37.277Z,17.65
2022-12-04T05:49:05.360Z,17.38
2022-12-04T05:51:33.846Z,18.55
2022-12-04T05:54:01.917Z,18.33
2022-12-04T05:56:31.478Z,16.48
2022-12-04T05:58:59.924Z,17.05
2022-12-04T06:01:28.340Z,17.55
2022-12-04T06:03:56.350Z,18.38
2022-12-04T06:06:26.711Z,18.95
2022-12-04T06:08:58.512Z,17.50
2022-12-04T06:11:28.913Z,16.52
2022-12-04T06:13:59.810Z,17.13
2022-12-04T06:16:30.681Z,17.75
2022-12-04T06:19:01.149Z,18.33
2022-12-04T06:21:31.779Z,16.55
2022-12-04T06:23:59.859Z,18.60
2022-12-04T06:26:28.486Z,17.88
2022-12-04T06:28:59.998Z,18.70
2022-12-04T06:31:30.086Z,18.77
2022-12-04T06:33:59.373Z,18.40
2022-12-04T06:36:27.902Z,17.77
2022-12-04T06:38:57.514Z,18.83
2022-12-04T06:41:27.633Z,19.75
2022-12-04T06:43:56.455Z,16.92
2022-12-04T06:46:31.351Z,18.35
2022-12-04T06:49:01.768Z,19.40
2022-12-04T06:51:33.964Z,16.77
2022-12-04T06:54:02.747Z,17.05
2022-12-04T06:56:33.974Z,19.05
2022-12-04T06:59:04.045Z,17.50
2022-12-04T07:01:35.265Z,18.88
2022-12-04T07:04:04.895Z,17.63
2022-12-04T07:06:34.476Z,19.73
2022-12-04T07:09:06.581Z,21.55
2022-12-04T07:11:35.556Z,17.55
2022-12-04T07:14:04.326Z,18.67
2022-12-04T07:16:40.430Z,16.52
2022-12-04T07:19:09.902Z,18.38
2022-12-04T07:21:38.020Z,19.58
2022-12-04T07:24:06.699Z,20.55
2022-12-04T07:26:35.165Z,17.45
2022-12-04T07:29:03.302Z,20.98
2022-12-04T07:31:33.006Z,20.15
2022-12-04T07:34:01.107Z,19.20
2022-12-04T07:36:29.219Z,18.15
2022-12-04T07:38:58.027Z,20.05
2022-12-04T07:41:26.188Z,18.15
2022-12-04T07:43:54.923Z,17.88
2022-12-04T07:46:27.337Z,18.23
2022-12-04T07:48:58.254Z,18.50
2022-12-04T07:51:28.628Z,19.27
2022-12-04T07:54:03.121Z,19.55
2022-12-04T07:56:31.616Z,18.15
2022-12-04T07:59:00.574Z,18.70
2022-12-04T08:01:28.972Z,20.08
2022-12-04T08:04:00.240Z,18.27
2022-12-04T08:06:31.441Z,19.58
2022-12-04T08:09:01.510Z,17.73
2022-12-04T08:14:04.777Z,19.15
2022-12-04T08:16:34.081Z,18.60
2022-12-04T08:19:03.725Z,19.83
2022-12-04T08:21:33.454Z,19.02
2022-12-04T08:24:02.163Z,18.05
2022-12-04T08:26:32.239Z,19.13
2022-12-04T08:29:01.531Z,19.75
2022-12-04T08:31:32.661Z,19.80
2022-12-04T08:34:05.311Z,17.65
2022-12-04T08:36:33.599Z,19.52
2022-12-04T08:39:01.868Z,16.95
2022-12-04T08:41:30.259Z,18.48
2022-12-04T08:43:58.928Z,21.10
2022-12-04T08:46:28.945Z,19.33
2022-12-04T08:48:57.970Z,19.27
2022-12-04T08:51:29.152Z,18.52
2022-12-04T08:53:59.191Z,19.58
2022-12-04T08:56:28.513Z,18.92
2022-12-04T08:58:57.595Z,18.77
2022-12-04T09:01:26.706Z,20.02
2022-12-04T09:03:55.948Z,18.27
2022-12-04T09:06:24.346Z,18.83
2022-12-04T09:08:55.596Z,18.17
2022-12-04T09:11:25.222Z,17.10
2022-12-04T09:13:53.882Z,17.88
2022-12-04T09:16:24.580Z,17.98
2022-12-04T09:18:53.235Z,17.35
2022-12-04T09:21:22.602Z,18.25
2022-12-04T09:23:50.686Z,16.35
2022-12-04T09:26:23.543Z,17.65
2022-12-04T09:28:52.550Z,17.88
2022-12-04T09:31:21.286Z,17.27
2022-12-04T09:33:49.735Z,17.70
2022-12-04T09:36:17.896Z,18.95
2022-12-04T09:38:47.403Z,16.65
2022-12-04T09:41:30.313Z,17.75
2022-12-04T09:44:03.050Z,20.50
2022-12-04T09:46:37.577Z,38.05
2022-12-04T09:49:11.551Z,40.17
2022-12-04T09:51:42.094Z,42.15
2022-12-04T09:54:17.069Z,47.38
2022-12-04T09:56:53.605Z,39.42
2022-12-04T09:59:25.524Z,36.65
2022-12-04T10:02:00.020Z,33.97
2022-12-04T10:04:30.596Z,34.97
2022-12-04T10:07:06.060Z,32.38
2022-12-04T10:09:43.503Z,34.42
2022-12-04T10:12:24.495Z,36.22
2022-12-04T10:15:04.437Z,32.75
2022-12-04T10:17:56.615Z,37.03
2022-12-04T10:20:48.071Z,34.47
2022-12-04T10:23:25.759Z,31.23
2022-12-04T10:25:56.190Z,32.67
2022-12-04T10:28:32.255Z,29.10
2022-12-04T10:31:03.466Z,32.88
2022-12-04T10:33:38.899Z,34.60
2022-12-04T10:36:08.230Z,36.50
2022-12-04T10:38:41.390Z,36.67
2022-12-04T10:41:15.462Z,30.38
2022-12-04T10:43:47.761Z,38.05
2022-12-04T10:46:17.378Z,35.75
2022-12-04T10:48:48.882Z,35.08
2022-12-04T10:51:20.102Z,33.88
2022-12-04T10:53:49.458Z,33.47
2022-12-04T10:56:19.740Z,29.33
2022-12-04T10:58:59.233Z,33.42
2022-12-04T11:01:29.065Z,31.92
2022-12-04T11:04:01.309Z,34.85
2022-12-04T11:06:30.086Z,31.27
2022-12-04T11:09:00.122Z,28.98
2022-12-04T11:11:31.106Z,35.38
2022-12-04T11:14:06.063Z,34.83
2022-12-04T11:16:38.889Z,30.52
2022-12-04T11:19:23.285Z,36.47
2022-12-04T11:21:52.026Z,33.50
2022-12-04T11:24:27.391Z,29.83
2022-12-04T11:26:56.697Z,35.42
2022-12-04T11:29:33.604Z,35.78
2022-12-04T11:32:07.439Z,34.30
2022-12-04T11:34:38.944Z,37.20
2022-12-04T11:37:18.831Z,42.20
2022-12-04T11:39:47.609Z,37.30
2022-12-04T11:42:19.520Z,43.15
2022-12-04T11:44:55.642Z,36.55
2022-12-04T11:47:26.521Z,36.95
2022-12-04T11:50:06.063Z,37.88
2022-12-04T11:52:46.560Z,36.13
2022-12-04T11:55:23.833Z,41.80
2022-12-04T11:58:14.618Z,47.38
2022-12-04T12:00:53.259Z,35.05
2022-12-04T12:03:28.112Z,44.05
2022-12-04T12:06:17.776Z,30.75
2022-12-04T12:09:02.887Z,39.92
2022-12-04T12:11:36.793Z,32.47
2022-12-04T12:14:14.414Z,35.33
2022-12-04T12:16:57.247Z,36.33
2022-12-04T12:19:47.677Z,30.60
2022-12-04T12:22:29.618Z,28.17
2022-12-04T12:25:07.252Z,31.77
2022-12-04T12:27:51.080Z,26.05
2022-12-04T12:30:22.822Z,29.02
2022-12-04T12:33:05.028Z,30.23
2022-12-04T12:35:40.247Z,29.35
2022-12-04T12:38:12.791Z,25.75
2022-12-04T12:40:43.903Z,25.25
2022-12-04T12:43:17.445Z,24.73
2022-12-04T12:45:50.837Z,31.38
2022-12-04T12:48:29.572Z,33.80
2022-12-04T12:51:28.622Z,28.55
2022-12-04T12:53:55.030Z,29.10
2022-12-04T12:56:32.205Z,32.13
2022-12-04T12:59:04.877Z,31.48
2022-12-04T13:01:43.562Z,35.70
2022-12-04T13:04:17.117Z,25.25
2022-12-04T13:06:48.158Z,27.00
2022-12-04T13:09:25.486Z,22.15
2022-12-04T13:11:58.330Z,25.15
2022-12-04T13:14:26.424Z,24.35
2022-12-04T13:17:00.034Z,25.33
2022-12-04T13:19:34.436Z,25.08
2022-12-04T13:22:15.608Z,22.55
2022-12-04T13:24:59.308Z,22.20
2022-12-04T13:27:39.336Z,24.67
2022-12-04T13:30:16.467Z,27.83
2022-12-04T13:33:08.209Z,22.33
2022-12-04T13:36:00.020Z,25.38
2022-12-04T13:38:37.375Z,23.63
2022-12-04T13:41:08.023Z,22.08
2022-12-04T13:43:38.177Z,27.77
2022-12-04T13:46:08.264Z,23.85
2022-12-04T13:48:40.191Z,21.80
2022-12-04T13:51:24.886Z,22.83
2022-12-04T13:54:21.334Z,23.55
2022-12-04T13:56:51.556Z,32.08
2022-12-04T13:59:34.087Z,32.65
2022-12-04T14:02:08.189Z,27.27
2022-12-04T14:04:45.428Z,22.60
2022-12-04T14:07:27.680Z,24.75
2022-12-04T14:09:57.920Z,21.75
2022-12-04T14:12:29.355Z,27.80
2022-12-04T14:15:00.482Z,33.38
2022-12-04T14:17:31.667Z,40.45
2022-12-04T14:20:07.528Z,47.00
2022-12-04T14:22:45.243Z,52.60
2022-12-04T14:25:26.980Z,55.83
2022-12-04T14:27:55.354Z,49.88
2022-12-04T14:30:25.979Z,51.25
2022-12-04T14:32:57.541Z,41.22
2022-12-04T14:35:27.745Z,44.63
2022-12-04T14:38:00.059Z,42.67
2022-12-04T14:40:30.663Z,44.50
2022-12-04T14:43:00.570Z,40.33
2022-12-04T14:45:38.571Z,39.15
2022-12-04T14:48:22.663Z,45.20
2022-12-04T14:50:59.679Z,47.58
2022-12-04T14:53:40.169Z,37.30
2022-12-04T14:56:25.531Z,42.65
2022-12-04T14:58:53.740Z,37.60
2022-12-04T15:01:29.056Z,29.63
2022-12-04T15:04:00.558Z,36.85
2022-12-04T15:06:30.628Z,41.50
2022-12-04T15:09:15.630Z,39.15
2022-12-04T15:12:06.627Z,34.92
2022-12-04T15:14:42.565Z,33.05
2022-12-04T15:17:11.810Z,37.45
2022-12-04T15:19:40.543Z,38.47
2022-12-04T15:22:14.317Z,42.50
2022-12-04T15:24:43.712Z,42.70
2022-12-04T15:27:14.071Z,46.30
2022-12-04T15:29:48.332Z,36.63
2022-12-04T15:32:19.704Z,38.20
2022-12-04T15:34:50.382Z,36.40
2022-12-04T15:37:22.261Z,32.88
2022-12-04T15:39:52.924Z,40.95
2022-12-04T15:42:27.857Z,37.92
2022-12-04T15:45:01.055Z,37.03
2022-12-04T15:47:31.045Z,38.88
2022-12-04T15:50:10.462Z,33.58
2022-12-04T15:52:38.719Z,36.72
2022-12-04T15:55:10.296Z,39.53
2022-12-04T15:57:41.218Z,31.90
2022-12-04T16:00:25.869Z,32.65
2022-12-04T16:02:54.998Z,37.05
2022-12-04T16:05:35.523Z,29.52
2022-12-04T16:08:23.281Z,37.13
2022-12-04T16:11:01.711Z,32.28
2022-12-04T16:13:32.490Z,39.25
2022-12-04T16:16:01.219Z,38.47
2022-12-04T16:18:30.008Z,29.50
2022-12-04T16:20:58.295Z,29.55
2022-12-04T16:23:27.462Z,35.63
2022-12-04T16:25:55.758Z,26.73
2022-12-04T16:28:25.451Z,32.88
2022-12-04T16:30:53.738Z,27.67
2022-12-04T16:33:22.095Z,27.02
2022-12-04T16:35:50.458Z,28.48
2022-12-04T16:38:18.944Z,21.77
2022-12-04T16:40:48.549Z,28.95
2022-12-04T16:43:17.815Z,27.52
2022-12-04T16:45:49.026Z,30.85
2022-12-04T16:48:17.097Z,24.27
2022-12-04T16:50:45.777Z,26.10
2022-12-04T16:53:17.960Z,24.98
2022-12-04T16:55:47.769Z,23.30
2022-12-04T16:58:16.782Z,23.17
2022-12-04T17:00:50.841Z,27.80
2022-12-04T17:03:23.115Z,31.98
2022-12-04T17:05:51.274Z,28.30
2022-12-04T17:08:19.651Z,24.50
2022-12-04T17:10:48.036Z,22.15
2022-12-04T17:13:18.484Z,26.10
2022-12-04T17:15:48.219Z,21.23
2022-12-04T17:18:21.101Z,25.33
2022-12-04T17:23:17.917Z,22.98
2022-12-04T17:25:46.086Z,20.70
2022-12-04T17:28:14.165Z,23.63
2022-12-04T17:30:47.684Z,23.38
2022-12-04T17:33:16.325Z,23.90
2022-12-04T17:35:44.857Z,21.35
2022-12-04T17:38:12.940Z,24.30
2022-12-04T17:40:41.082Z,21.67
2022-12-04T17:43:09.191Z,23.00
2022-12-04T17:45:41.136Z,24.70
2022-12-04T17:48:10.540Z,22.40
2022-12-04T17:50:38.610Z,21.15
2022-12-04T17:53:07.125Z,22.95
2022-12-04T17:55:35.288Z,23.10
2022-12-04T17:58:03.727Z,19.55
2022-12-04T18:00:32.020Z,26.80
2022-12-04T18:03:00.137Z,21.27
2022-12-04T18:05:31.631Z,25.95
2022-12-04T18:08:00.066Z,26.90
2022-12-04T18:10:28.500Z,26.25
2022-12-04T18:12:56.643Z,23.55
2022-12-04T18:15:25.075Z,20.88
2022-12-04T18:17:53.304Z,20.33
2022-12-04T18:20:21.370Z,20.85
2022-12-04T18:22:50.844Z,25.48
2022-12-04T18:25:19.435Z,28.95
2022-12-04T18:27:47.577Z,26.25
2022-12-04T18:30:15.973Z,24.40
2022-12-04T18:32:45.235Z,27.58
2022-12-04T18:35:13.379Z,26.08
2022-12-04T18:37:41.493Z,25.00
2022-12-04T18:40:11.823Z,22.50
2022-12-04T18:42:39.939Z,23.70
2022-12-04T18:45:09.298Z,24.55
2022-12-04T18:47:37.459Z,28.42
2022-12-04T18:50:06.469Z,22.80
2022-12-04T18:52:36.946Z,18.80
2022-12-04T18:55:05.412Z,24.85
2022-12-04T18:57:34.929Z,19.52
2022-12-04T19:00:03.963Z,27.27
2022-12-04T19:02:32.785Z,24.02
2022-12-04T19:05:01.200Z,36.85
2022-12-04T19:07:29.552Z,21.88
2022-12-04T19:10:13.248Z,20.60
2022-12-04T19:15:11.572Z,24.80
2022-12-04T19:17:39.741Z,20.83
2022-12-04T19:20:09.450Z,20.80
2022-12-04T19:22:38.122Z,22.23
2022-12-04T19:25:07.661Z,20.17
2022-12-04T19:27:35.773Z,22.30
2022-12-04T19:30:06.277Z,20.60
2022-12-04T19:32:34.833Z,24.30
2022-12-04T19:35:02.998Z,21.10
2022-12-04T19:37:31.339Z,19.63
2022-12-04T19:39:59.659Z,20.27
2022-12-04T19:42:31.411Z,16.60
2022-12-04T19:44:59.486Z,18.40
2022-12-04T19:47:28.872Z,22.83
2022-12-04T19:49:57.118Z,21.20
2022-12-04T19:52:25.451Z,21.52
2022-12-04T19:54:53.906Z,21.50
2022-12-04T19:57:22.021Z,17.42
2022-12-04T19:59:50.039Z,21.30
2022-12-04T20:02:19.809Z,18.77
2022-12-04T20:04:49.339Z,18.52
2022-12-04T20:07:18.018Z,23.00
2022-12-04T20:09:51.934Z,27.55
2022-12-04T20:12:20.935Z,24.42
2022-12-04T20:14:48.977Z,22.92
2022-12-04T20:17:17.362Z,23.45
2022-12-04T20:19:45.524Z,28.35
2022-12-04T20:22:14.968Z,28.90
2022-12-04T20:24:43.167Z,22.48
2022-12-04T20:27:11.346Z,32.95
2022-12-04T20:29:39.528Z,27.88
2022-12-04T20:32:07.583Z,29.58
2022-12-04T20:34:43.085Z,29.95
2022-12-04T20:37:12.045Z,29.02
2022-12-04T20:39:41.887Z,32.88
2022-12-04T20:42:10.012Z,36.25
2022-12-04T20:44:38.127Z,25.38
2022-12-04T20:47:06.267Z,26.13
2022-12-04T20:49:34.319Z,28.98
2022-12-04T20:52:02.459Z,33.78
2022-12-04T20:54:30.534Z,37.60
2022-12-04T20:56:59.958Z,28.40
2022-12-04T20:59:28.352Z,32.72
2022-12-04T21:01:56.600Z,32.30
2022-12-04T21:04:24.698Z,30.30
2022-12-04T21:06:52.928Z,31.02
2022-12-04T21:09:33.498Z,34.22
2022-12-04T21:12:03.052Z,26.27
2022-12-04T21:14:51.362Z,28.85
2022-12-04T21:17:21.208Z,22.38
2022-12-04T21:19:51.552Z,25.85
2022-12-04T21:22:20.298Z,26.77
2022-12-04T21:24:48.491Z,25.88
2022-12-04T21:27:21.144Z,33.65
2022-12-04T21:29:50.096Z,27.42
2022-12-04T21:32:19.084Z,22.45
2022-12-04T21:34:47.184Z,21.67
2022-12-04T21:37:15.543Z,26.00
2022-12-04T21:39:44.349Z,24.83
2022-12-04T21:42:35.143Z,21.30
2022-12-04T21:45:07.678Z,24.77
2022-12-04T21:47:37.245Z,23.60
2022-12-04T21:50:06.551Z,26.92
2022-12-04T21:52:34.729Z,19.40
2022-12-04T21:55:02.886Z,21.70
2022-12-04T21:57:30.926Z,18.10
2022-12-04T21:59:59.233Z,21.33
2022-12-04T22:02:28.993Z,19.83
2022-12-04T22:04:57.135Z,17.80
2022-12-04T22:07:25.222Z,17.23
2022-12-04T22:09:53.363Z,18.23
2022-12-04T22:15:10.265Z,21.88
2022-12-04T22:17:39.747Z,17.77
2022-12-04T22:20:09.104Z,16.95
2022-12-04T22:22:37.225Z,21.55
2022-12-04T22:25:05.609Z,19.52
2022-12-04T22:27:33.709Z,18.65
2022-12-04T22:30:02.474Z,20.48
2022-12-04T22:32:32.471Z,19.27
2022-12-04T22:35:01.887Z,18.38
2022-12-04T22:37:29.984Z,16.25
2022-12-04T22:39:58.447Z,18.60
2022-12-04T22:42:26.829Z,19.42
2022-12-04T22:44:54.919Z,15.32
2022-12-04T22:47:22.985Z,15.15
2022-12-04T22:49:51.172Z,17.88
2022-12-04T22:52:20.590Z,17.48
2022-12-04T22:54:51.040Z,14.70
2022-12-04T22:57:19.491Z,15.90
2022-12-04T22:59:47.639Z,17.55
2022-12-04T23:02:15.763Z,15.43
2022-12-04T23:04:44.143Z,14.90
2022-12-04T23:07:12.256Z,13.85
2022-12-04T23:09:41.760Z,14.52
2022-12-04T23:12:10.222Z,17.45
2022-12-04T23:14:38.326Z,17.00
2022-12-04T23:17:06.383Z,15.13
2022-12-04T23:19:34.613Z,13.52
2022-12-04T23:22:02.700Z,14.85
2022-12-04T23:24:30.867Z,12.40
2022-12-04T23:27:00.344Z,12.15
2022-12-04T23:32:16.484Z,13.38
2022-12-04T23:34:44.569Z,12.35
2022-12-04T23:37:12.608Z,12.75
2022-12-04T23:39:40.760Z,11.85
2022-12-04T23:42:11.166Z,11.85
2022-12-04T23:44:39.231Z,12.98
2022-12-04T23:47:07.338Z,14.10
2022-12-04T23:49:35.512Z,10.40
2022-12-04T23:52:03.850Z,13.40
2022-12-04T23:54:35.032Z,11.88
2022-12-04T23:57:03.444Z,11.05
2022-12-04T23:59:32.937Z,10.63
